sensor_id;sensor_type;location;lat;lon;timestamp;P1;durP1;ratioP1;P2;durP2;ratioP2
81656;SDS011;71067;51.482;-0.580;2024-01-11T00:01:44;5.63;;;2.20;;
81656;SDS011;71067;51.482;-0.580;2024-01-11T00:04:11;9.75;;;2.90;;
81656;SDS011;71067;51.482;-0.580;2024-01-11T00:06:43;5.75;;;2.38;;
81656;SDS011;71067;51.482;-0.580;2024-01-11T00:09:09;8.45;;;2.83;;
81656;SDS011;71067;51.482;-0.580;2024-01-11T00:11:35;5.95;;;2.50;;
81656;SDS011;71067;51.482;-0.580;2024-01-11T00:14:00;10.52;;;3.53;;
81656;SDS011;71067;51.482;-0.580;2024-01-11T00:16:25;6.70;;;2.87;;
81656;SDS011;71067;51.482;-0.580;2024-01-11T00:18:51;10.32;;;2.72;;
81656;SDS011;71067;51.482;-0.580;2024-01-11T00:21:17;7.45;;;3.20;;
81656;SDS011;71067;51.482;-0.580;2024-01-11T00:23:42;9.05;;;2.97;;
81656;SDS011;71067;51.482;-0.580;2024-01-11T00:26:07;8.20;;;3.00;;
81656;SDS011;71067;51.482;-0.580;2024-01-11T00:28:32;9.80;;;2.88;;
81656;SDS011;71067;51.482;-0.580;2024-01-11T00:30:58;6.80;;;2.80;;
81656;SDS011;71067;51.482;-0.580;2024-01-11T00:33:23;7.63;;;2.93;;
81656;SDS011;71067;51.482;-0.580;2024-01-11T00:35:48;8.37;;;3.10;;
81656;SDS011;71067;51.482;-0.580;2024-01-11T00:38:14;8.07;;;2.60;;
81656;SDS011;71067;51.482;-0.580;2024-01-11T00:40:39;11.53;;;3.00;;
81656;SDS011;71067;51.482;-0.580;2024-01-11T00:43:04;8.82;;;3.25;;
81656;SDS011;71067;51.482;-0.580;2024-01-11T00:45:30;7.77;;;3.03;;
81656;SDS011;71067;51.482;-0.580;2024-01-11T00:47:55;8.07;;;2.83;;
81656;SDS011;71067;51.482;-0.580;2024-01-11T00:50:20;9.70;;;2.92;;
81656;SDS011;71067;51.482;-0.580;2024-01-11T00:52:46;9.93;;;3.30;;
81656;SDS011;71067;51.482;-0.580;2024-01-11T00:55:11;10.63;;;3.50;;
81656;SDS011;71067;51.482;-0.580;2024-01-11T00:57:37;8.60;;;3.15;;
81656;SDS011;71067;51.482;-0.580;2024-01-11T01:00:02;7.63;;;2.87;;
81656;SDS011;71067;51.482;-0.580;2024-01-11T01:02:28;11.27;;;3.45;;
81656;SDS011;71067;51.482;-0.580;2024-01-11T01:04:53;11.07;;;3.38;;
81656;SDS011;71067;51.482;-0.580;2024-01-11T01:07:18;12.32;;;3.17;;
81656;SDS011;71067;51.482;-0.580;2024-01-11T01:09:43;9.43;;;3.00;;
81656;SDS011;71067;51.482;-0.580;2024-01-11T01:12:09;8.27;;;3.33;;
81656;SDS011;71067;51.482;-0.580;2024-01-11T01:14:34;7.67;;;2.93;;
81656;SDS011;71067;51.482;-0.580;2024-01-11T01:16:59;12.87;;;3.33;;
81656;SDS011;71067;51.482;-0.580;2024-01-11T01:19:25;8.52;;;3.15;;
81656;SDS011;71067;51.482;-0.580;2024-01-11T01:21:50;9.80;;;3.23;;
81656;SDS011;71067;51.482;-0.580;2024-01-11T01:24:15;7.97;;;3.40;;
81656;SDS011;71067;51.482;-0.580;2024-01-11T01:26:41;9.52;;;3.58;;
81656;SDS011;71067;51.482;-0.580;2024-01-11T01:29:06;9.88;;;3.03;;
81656;SDS011;71067;51.482;-0.580;2024-01-11T01:31:32;8.48;;;3.63;;
81656;SDS011;71067;51.482;-0.580;2024-01-11T01:34:02;9.10;;;3.15;;
81656;SDS011;71067;51.482;-0.580;2024-01-11T01:36:28;9.18;;;3.78;;
81656;SDS011;71067;51.482;-0.580;2024-01-11T01:38:53;8.75;;;3.70;;
81656;SDS011;71067;51.482;-0.580;2024-01-11T01:41:19;10.73;;;3.55;;
81656;SDS011;71067;51.482;-0.580;2024-01-11T01:43:44;11.70;;;3.33;;
81656;SDS011;71067;51.482;-0.580;2024-01-11T01:46:09;8.47;;;3.13;;
81656;SDS011;71067;51.482;-0.580;2024-01-11T01:48:35;11.43;;;3.40;;
81656;SDS011;71067;51.482;-0.580;2024-01-11T01:51:01;8.60;;;3.83;;
81656;SDS011;71067;51.482;-0.580;2024-01-11T01:53:28;11.85;;;4.00;;
81656;SDS011;71067;51.482;-0.580;2024-01-11T01:55:54;11.15;;;3.50;;
81656;SDS011;71067;51.482;-0.580;2024-01-11T01:58:20;7.95;;;3.42;;
81656;SDS011;71067;51.482;-0.580;2024-01-11T02:00:47;10.55;;;4.22;;
81656;SDS011;71067;51.482;-0.580;2024-01-11T02:03:14;8.43;;;3.60;;
81656;SDS011;71067;51.482;-0.580;2024-01-11T02:05:41;10.38;;;3.15;;
81656;SDS011;71067;51.482;-0.580;2024-01-11T02:08:07;9.85;;;3.38;;
81656;SDS011;71067;51.482;-0.580;2024-01-11T02:10:33;9.02;;;3.60;;
81656;SDS011;71067;51.482;-0.580;2024-01-11T02:13:00;8.63;;;3.10;;
81656;SDS011;71067;51.482;-0.580;2024-01-11T02:15:25;13.60;;;4.00;;
81656;SDS011;71067;51.482;-0.580;2024-01-11T02:17:51;8.80;;;3.47;;
81656;SDS011;71067;51.482;-0.580;2024-01-11T02:20:16;10.95;;;4.22;;
81656;SDS011;71067;51.482;-0.580;2024-01-11T02:22:43;9.63;;;4.15;;
81656;SDS011;71067;51.482;-0.580;2024-01-11T02:25:13;8.73;;;3.20;;
81656;SDS011;71067;51.482;-0.580;2024-01-11T02:27:45;9.05;;;3.30;;
81656;SDS011;71067;51.482;-0.580;2024-01-11T02:30:14;9.68;;;3.88;;
81656;SDS011;71067;51.482;-0.580;2024-01-11T02:32:40;11.55;;;3.72;;
81656;SDS011;71067;51.482;-0.580;2024-01-11T02:35:08;10.18;;;3.78;;
81656;SDS011;71067;51.482;-0.580;2024-01-11T02:37:33;11.32;;;3.75;;
81656;SDS011;71067;51.482;-0.580;2024-01-11T02:39:59;11.70;;;3.67;;
81656;SDS011;71067;51.482;-0.580;2024-01-11T02:42:24;10.73;;;3.70;;
81656;SDS011;71067;51.482;-0.580;2024-01-11T02:44:49;9.87;;;3.97;;
81656;SDS011;71067;51.482;-0.580;2024-01-11T02:47:15;13.17;;;3.83;;
81656;SDS011;71067;51.482;-0.580;2024-01-11T02:49:40;8.30;;;3.60;;
81656;SDS011;71067;51.482;-0.580;2024-01-11T02:52:05;10.90;;;3.80;;
81656;SDS011;71067;51.482;-0.580;2024-01-11T02:54:31;16.03;;;4.83;;
81656;SDS011;71067;51.482;-0.580;2024-01-11T02:56:56;10.43;;;3.50;;
81656;SDS011;71067;51.482;-0.580;2024-01-11T02:59:22;12.13;;;3.70;;
81656;SDS011;71067;51.482;-0.580;2024-01-11T03:01:48;12.32;;;4.45;;
81656;SDS011;71067;51.482;-0.580;2024-01-11T03:04:14;11.23;;;3.88;;
81656;SDS011;71067;51.482;-0.580;2024-01-11T03:06:39;10.15;;;3.90;;
81656;SDS011;71067;51.482;-0.580;2024-01-11T03:09:06;11.63;;;3.47;;
81656;SDS011;71067;51.482;-0.580;2024-01-11T03:11:31;11.63;;;4.25;;
81656;SDS011;71067;51.482;-0.580;2024-01-11T03:13:56;14.73;;;4.10;;
81656;SDS011;71067;51.482;-0.580;2024-01-11T03:16:22;9.57;;;4.40;;
81656;SDS011;71067;51.482;-0.580;2024-01-11T03:18:47;13.93;;;4.35;;
81656;SDS011;71067;51.482;-0.580;2024-01-11T03:21:12;11.60;;;3.90;;
81656;SDS011;71067;51.482;-0.580;2024-01-11T03:23:37;10.00;;;4.25;;
81656;SDS011;71067;51.482;-0.580;2024-01-11T03:26:03;10.37;;;4.37;;
81656;SDS011;71067;51.482;-0.580;2024-01-11T03:28:28;13.15;;;4.45;;
81656;SDS011;71067;51.482;-0.580;2024-01-11T03:30:53;12.68;;;4.28;;
81656;SDS011;71067;51.482;-0.580;2024-01-11T03:33:19;11.05;;;4.05;;
81656;SDS011;71067;51.482;-0.580;2024-01-11T03:35:44;11.02;;;4.80;;
81656;SDS011;71067;51.482;-0.580;2024-01-11T03:38:10;14.38;;;5.15;;
81656;SDS011;71067;51.482;-0.580;2024-01-11T03:40:35;13.68;;;4.68;;
81656;SDS011;71067;51.482;-0.580;2024-01-11T03:43:01;12.25;;;5.10;;
81656;SDS011;71067;51.482;-0.580;2024-01-11T03:45:26;11.55;;;4.95;;
81656;SDS011;71067;51.482;-0.580;2024-01-11T03:47:51;12.55;;;4.85;;
81656;SDS011;71067;51.482;-0.580;2024-01-11T03:50:17;14.00;;;4.90;;
81656;SDS011;71067;51.482;-0.580;2024-01-11T03:52:42;10.43;;;4.33;;
81656;SDS011;71067;51.482;-0.580;2024-01-11T03:55:07;13.07;;;4.77;;
81656;SDS011;71067;51.482;-0.580;2024-01-11T03:57:33;12.80;;;4.75;;
81656;SDS011;71067;51.482;-0.580;2024-01-11T03:59:58;11.70;;;4.50;;
81656;SDS011;71067;51.482;-0.580;2024-01-11T04:02:24;16.35;;;5.55;;
81656;SDS011;71067;51.482;-0.580;2024-01-11T04:04:49;11.43;;;5.20;;
81656;SDS011;71067;51.482;-0.580;2024-01-11T04:07:15;14.57;;;4.82;;
81656;SDS011;71067;51.482;-0.580;2024-01-11T04:09:40;12.73;;;4.60;;
81656;SDS011;71067;51.482;-0.580;2024-01-11T04:12:06;12.95;;;5.28;;
81656;SDS011;71067;51.482;-0.580;2024-01-11T04:14:31;14.07;;;5.70;;
81656;SDS011;71067;51.482;-0.580;2024-01-11T04:16:56;12.30;;;5.03;;
81656;SDS011;71067;51.482;-0.580;2024-01-11T04:19:22;17.07;;;5.57;;
81656;SDS011;71067;51.482;-0.580;2024-01-11T04:21:47;16.08;;;4.93;;
81656;SDS011;71067;51.482;-0.580;2024-01-11T04:24:12;16.53;;;4.97;;
81656;SDS011;71067;51.482;-0.580;2024-01-11T04:26:38;11.03;;;5.23;;
81656;SDS011;71067;51.482;-0.580;2024-01-11T04:29:03;13.20;;;5.05;;
81656;SDS011;71067;51.482;-0.580;2024-01-11T04:31:28;12.40;;;4.60;;
81656;SDS011;71067;51.482;-0.580;2024-01-11T04:33:54;13.35;;;5.00;;
81656;SDS011;71067;51.482;-0.580;2024-01-11T04:36:19;14.57;;;5.00;;
81656;SDS011;71067;51.482;-0.580;2024-01-11T04:38:44;13.38;;;5.10;;
81656;SDS011;71067;51.482;-0.580;2024-01-11T04:41:10;14.98;;;5.18;;
81656;SDS011;71067;51.482;-0.580;2024-01-11T04:43:37;16.92;;;5.22;;
81656;SDS011;71067;51.482;-0.580;2024-01-11T04:46:12;12.05;;;5.00;;
81656;SDS011;71067;51.482;-0.580;2024-01-11T04:48:39;11.48;;;5.10;;
81656;SDS011;71067;51.482;-0.580;2024-01-11T04:51:05;12.60;;;4.90;;
81656;SDS011;71067;51.482;-0.580;2024-01-11T04:53:30;13.95;;;5.45;;
81656;SDS011;71067;51.482;-0.580;2024-01-11T04:55:55;15.25;;;5.18;;
81656;SDS011;71067;51.482;-0.580;2024-01-11T04:58:21;13.77;;;5.38;;
81656;SDS011;71067;51.482;-0.580;2024-01-11T05:00:46;12.75;;;4.82;;
81656;SDS011;71067;51.482;-0.580;2024-01-11T05:03:12;12.07;;;5.22;;
81656;SDS011;71067;51.482;-0.580;2024-01-11T05:05:37;12.07;;;4.50;;
81656;SDS011;71067;51.482;-0.580;2024-01-11T05:08:02;12.93;;;5.10;;
81656;SDS011;71067;51.482;-0.580;2024-01-11T05:10:28;14.43;;;5.75;;
81656;SDS011;71067;51.482;-0.580;2024-01-11T05:12:53;13.57;;;5.27;;
81656;SDS011;71067;51.482;-0.580;2024-01-11T05:15:18;12.47;;;5.50;;
81656;SDS011;71067;51.482;-0.580;2024-01-11T05:17:44;12.98;;;5.00;;
81656;SDS011;71067;51.482;-0.580;2024-01-11T05:20:09;17.33;;;5.13;;
81656;SDS011;71067;51.482;-0.580;2024-01-11T05:22:35;17.35;;;4.75;;
81656;SDS011;71067;51.482;-0.580;2024-01-11T05:25:01;15.75;;;4.90;;
81656;SDS011;71067;51.482;-0.580;2024-01-11T05:27:26;14.27;;;4.95;;
81656;SDS011;71067;51.482;-0.580;2024-01-11T05:29:52;14.20;;;5.23;;
81656;SDS011;71067;51.482;-0.580;2024-01-11T05:32:17;14.15;;;4.93;;
81656;SDS011;71067;51.482;-0.580;2024-01-11T05:34:42;14.17;;;5.10;;
81656;SDS011;71067;51.482;-0.580;2024-01-11T05:37:08;15.57;;;4.78;;
81656;SDS011;71067;51.482;-0.580;2024-01-11T05:39:33;15.37;;;4.30;;
81656;SDS011;71067;51.482;-0.580;2024-01-11T05:41:58;10.52;;;5.00;;
81656;SDS011;71067;51.482;-0.580;2024-01-11T05:44:24;12.60;;;4.80;;
81656;SDS011;71067;51.482;-0.580;2024-01-11T05:46:49;13.13;;;4.50;;
81656;SDS011;71067;51.482;-0.580;2024-01-11T05:49:14;10.55;;;4.35;;
81656;SDS011;71067;51.482;-0.580;2024-01-11T05:51:40;12.63;;;4.72;;
81656;SDS011;71067;51.482;-0.580;2024-01-11T05:54:05;11.80;;;4.10;;
81656;SDS011;71067;51.482;-0.580;2024-01-11T05:56:30;12.47;;;4.03;;
81656;SDS011;71067;51.482;-0.580;2024-01-11T05:58:56;13.10;;;4.32;;
81656;SDS011;71067;51.482;-0.580;2024-01-11T06:01:21;14.45;;;4.82;;
81656;SDS011;71067;51.482;-0.580;2024-01-11T06:03:47;13.90;;;4.95;;
81656;SDS011;71067;51.482;-0.580;2024-01-11T06:06:12;13.48;;;4.22;;
81656;SDS011;71067;51.482;-0.580;2024-01-11T06:08:37;13.80;;;4.93;;
81656;SDS011;71067;51.482;-0.580;2024-01-11T06:11:03;16.10;;;4.90;;
81656;SDS011;71067;51.482;-0.580;2024-01-11T06:13:29;11.65;;;5.03;;
81656;SDS011;71067;51.482;-0.580;2024-01-11T06:15:54;10.82;;;5.30;;
81656;SDS011;71067;51.482;-0.580;2024-01-11T06:18:19;14.20;;;4.82;;
81656;SDS011;71067;51.482;-0.580;2024-01-11T06:20:45;14.68;;;5.00;;
81656;SDS011;71067;51.482;-0.580;2024-01-11T06:23:10;11.48;;;4.80;;
81656;SDS011;71067;51.482;-0.580;2024-01-11T06:25:36;11.93;;;5.00;;
81656;SDS011;71067;51.482;-0.580;2024-01-11T06:28:03;14.75;;;5.00;;
81656;SDS011;71067;51.482;-0.580;2024-01-11T06:30:29;15.13;;;5.50;;
81656;SDS011;71067;51.482;-0.580;2024-01-11T06:32:54;13.90;;;4.90;;
81656;SDS011;71067;51.482;-0.580;2024-01-11T06:35:19;11.67;;;4.37;;
81656;SDS011;71067;51.482;-0.580;2024-01-11T06:37:45;10.95;;;3.83;;
81656;SDS011;71067;51.482;-0.580;2024-01-11T06:40:10;11.02;;;4.10;;
81656;SDS011;71067;51.482;-0.580;2024-01-11T06:42:36;14.17;;;3.97;;
81656;SDS011;71067;51.482;-0.580;2024-01-11T06:45:01;11.07;;;4.43;;
81656;SDS011;71067;51.482;-0.580;2024-01-11T06:47:28;7.97;;;3.30;;
81656;SDS011;71067;51.482;-0.580;2024-01-11T06:49:54;9.20;;;3.70;;
81656;SDS011;71067;51.482;-0.580;2024-01-11T06:52:19;7.30;;;3.15;;
81656;SDS011;71067;51.482;-0.580;2024-01-11T06:54:44;5.70;;;3.28;;
81656;SDS011;71067;51.482;-0.580;2024-01-11T06:57:10;13.55;;;3.20;;
81656;SDS011;71067;51.482;-0.580;2024-01-11T06:59:35;9.73;;;2.90;;
81656;SDS011;71067;51.482;-0.580;2024-01-11T07:02:00;12.70;;;2.90;;
81656;SDS011;71067;51.482;-0.580;2024-01-11T07:04:26;7.73;;;3.20;;
81656;SDS011;71067;51.482;-0.580;2024-01-11T07:06:51;13.00;;;2.97;;
81656;SDS011;71067;51.482;-0.580;2024-01-11T07:09:16;9.85;;;3.05;;
81656;SDS011;71067;51.482;-0.580;2024-01-11T07:11:42;8.02;;;2.83;;
81656;SDS011;71067;51.482;-0.580;2024-01-11T07:14:08;10.30;;;3.33;;
81656;SDS011;71067;51.482;-0.580;2024-01-11T07:16:34;6.68;;;2.70;;
81656;SDS011;71067;51.482;-0.580;2024-01-11T07:19:00;9.00;;;2.90;;
81656;SDS011;71067;51.482;-0.580;2024-01-11T07:21:26;6.85;;;2.60;;
81656;SDS011;71067;51.482;-0.580;2024-01-11T07:23:58;9.60;;;3.15;;
81656;SDS011;71067;51.482;-0.580;2024-01-11T07:26:24;8.10;;;2.72;;
81656;SDS011;71067;51.482;-0.580;2024-01-11T07:28:50;7.72;;;3.20;;
81656;SDS011;71067;51.482;-0.580;2024-01-11T07:31:15;8.13;;;2.72;;
81656;SDS011;71067;51.482;-0.580;2024-01-11T07:33:41;9.40;;;3.55;;
81656;SDS011;71067;51.482;-0.580;2024-01-11T07:36:06;9.02;;;2.90;;
81656;SDS011;71067;51.482;-0.580;2024-01-11T07:38:32;5.85;;;2.70;;
81656;SDS011;71067;51.482;-0.580;2024-01-11T07:40:57;8.00;;;2.72;;
81656;SDS011;71067;51.482;-0.580;2024-01-11T07:43:23;10.83;;;3.00;;
81656;SDS011;71067;51.482;-0.580;2024-01-11T07:45:48;8.65;;;2.97;;
81656;SDS011;71067;51.482;-0.580;2024-01-11T07:48:13;9.80;;;2.87;;
81656;SDS011;71067;51.482;-0.580;2024-01-11T07:50:39;6.00;;;2.50;;
81656;SDS011;71067;51.482;-0.580;2024-01-11T07:53:04;7.97;;;2.70;;
81656;SDS011;71067;51.482;-0.580;2024-01-11T07:55:30;12.80;;;3.35;;
81656;SDS011;71067;51.482;-0.580;2024-01-11T07:57:56;6.93;;;3.28;;
81656;SDS011;71067;51.482;-0.580;2024-01-11T08:00:21;9.27;;;3.15;;
81656;SDS011;71067;51.482;-0.580;2024-01-11T08:02:47;7.38;;;3.05;;
81656;SDS011;71067;51.482;-0.580;2024-01-11T08:05:12;9.67;;;3.43;;
81656;SDS011;71067;51.482;-0.580;2024-01-11T08:07:37;8.40;;;3.42;;
81656;SDS011;71067;51.482;-0.580;2024-01-11T08:10:03;10.27;;;3.20;;
81656;SDS011;71067;51.482;-0.580;2024-01-11T08:12:29;10.63;;;3.28;;
81656;SDS011;71067;51.482;-0.580;2024-01-11T08:14:54;10.57;;;3.58;;
81656;SDS011;71067;51.482;-0.580;2024-01-11T08:17:21;6.65;;;2.92;;
81656;SDS011;71067;51.482;-0.580;2024-01-11T08:19:46;9.57;;;3.22;;
81656;SDS011;71067;51.482;-0.580;2024-01-11T08:22:11;6.90;;;2.70;;
81656;SDS011;71067;51.482;-0.580;2024-01-11T08:24:37;10.30;;;3.70;;
81656;SDS011;71067;51.482;-0.580;2024-01-11T08:27:03;11.85;;;3.55;;
81656;SDS011;71067;51.482;-0.580;2024-01-11T08:29:29;12.98;;;4.20;;
81656;SDS011;71067;51.482;-0.580;2024-01-11T08:31:54;11.00;;;3.85;;
81656;SDS011;71067;51.482;-0.580;2024-01-11T08:34:20;7.38;;;3.40;;
81656;SDS011;71067;51.482;-0.580;2024-01-11T08:36:46;7.80;;;3.58;;
81656;SDS011;71067;51.482;-0.580;2024-01-11T08:39:11;9.02;;;3.47;;
81656;SDS011;71067;51.482;-0.580;2024-01-11T08:41:38;6.20;;;3.08;;
81656;SDS011;71067;51.482;-0.580;2024-01-11T08:44:03;8.85;;;3.40;;
81656;SDS011;71067;51.482;-0.580;2024-01-11T08:46:32;10.68;;;3.33;;
81656;SDS011;71067;51.482;-0.580;2024-01-11T08:49:01;9.82;;;3.60;;
81656;SDS011;71067;51.482;-0.580;2024-01-11T08:51:28;10.18;;;3.38;;
81656;SDS011;71067;51.482;-0.580;2024-01-11T08:53:54;10.95;;;3.90;;
81656;SDS011;71067;51.482;-0.580;2024-01-11T08:56:19;12.05;;;3.78;;
81656;SDS011;71067;51.482;-0.580;2024-01-11T08:58:45;11.18;;;3.75;;
81656;SDS011;71067;51.482;-0.580;2024-01-11T09:01:11;8.75;;;3.85;;
81656;SDS011;71067;51.482;-0.580;2024-01-11T09:03:36;13.88;;;4.32;;
81656;SDS011;71067;51.482;-0.580;2024-01-11T09:06:02;8.98;;;3.50;;
81656;SDS011;71067;51.482;-0.580;2024-01-11T09:08:28;7.05;;;3.42;;
81656;SDS011;71067;51.482;-0.580;2024-01-11T09:10:54;8.05;;;3.40;;
81656;SDS011;71067;51.482;-0.580;2024-01-11T09:13:20;14.45;;;3.95;;
81656;SDS011;71067;51.482;-0.580;2024-01-11T09:15:46;9.38;;;3.90;;
81656;SDS011;71067;51.482;-0.580;2024-01-11T09:18:11;8.13;;;3.70;;
81656;SDS011;71067;51.482;-0.580;2024-01-11T09:20:36;9.20;;;3.60;;
81656;SDS011;71067;51.482;-0.580;2024-01-11T09:23:02;8.15;;;3.47;;
81656;SDS011;71067;51.482;-0.580;2024-01-11T09:25:29;12.15;;;3.78;;
81656;SDS011;71067;51.482;-0.580;2024-01-11T09:27:55;14.88;;;4.50;;
81656;SDS011;71067;51.482;-0.580;2024-01-11T09:30:20;9.47;;;3.90;;
81656;SDS011;71067;51.482;-0.580;2024-01-11T09:32:45;10.70;;;4.17;;
81656;SDS011;71067;51.482;-0.580;2024-01-11T09:35:11;10.43;;;3.85;;
81656;SDS011;71067;51.482;-0.580;2024-01-11T09:37:36;13.90;;;3.83;;
81656;SDS011;71067;51.482;-0.580;2024-01-11T09:40:02;12.02;;;3.55;;
81656;SDS011;71067;51.482;-0.580;2024-01-11T09:42:27;8.10;;;3.97;;
81656;SDS011;71067;51.482;-0.580;2024-01-11T09:44:53;8.80;;;3.80;;
81656;SDS011;71067;51.482;-0.580;2024-01-11T09:47:20;11.57;;;3.35;;
81656;SDS011;71067;51.482;-0.580;2024-01-11T09:49:46;8.85;;;3.50;;
81656;SDS011;71067;51.482;-0.580;2024-01-11T09:52:15;9.80;;;3.88;;
81656;SDS011;71067;51.482;-0.580;2024-01-11T09:54:44;8.73;;;3.53;;
81656;SDS011;71067;51.482;-0.580;2024-01-11T09:57:10;9.52;;;3.53;;
81656;SDS011;71067;51.482;-0.580;2024-01-11T09:59:35;8.00;;;3.20;;
81656;SDS011;71067;51.482;-0.580;2024-01-11T10:02:02;13.48;;;4.15;;
81656;SDS011;71067;51.482;-0.580;2024-01-11T10:04:28;9.20;;;3.38;;
81656;SDS011;71067;51.482;-0.580;2024-01-11T10:06:53;9.27;;;3.55;;
81656;SDS011;71067;51.482;-0.580;2024-01-11T10:09:21;8.77;;;3.40;;
81656;SDS011;71067;51.482;-0.580;2024-01-11T10:11:47;7.13;;;3.50;;
81656;SDS011;71067;51.482;-0.580;2024-01-11T10:14:14;8.57;;;3.80;;
81656;SDS011;71067;51.482;-0.580;2024-01-11T10:16:41;7.07;;;3.25;;
81656;SDS011;71067;51.482;-0.580;2024-01-11T10:19:07;14.10;;;4.03;;
81656;SDS011;71067;51.482;-0.580;2024-01-11T10:21:33;7.63;;;2.90;;
81656;SDS011;71067;51.482;-0.580;2024-01-11T10:26:29;8.48;;;3.40;;
81656;SDS011;71067;51.482;-0.580;2024-01-11T10:28:58;8.75;;;2.75;;
81656;SDS011;71067;51.482;-0.580;2024-01-11T10:31:28;7.95;;;3.28;;
81656;SDS011;71067;51.482;-0.580;2024-01-11T10:33:54;5.22;;;2.33;;
81656;SDS011;71067;51.482;-0.580;2024-01-11T10:36:19;12.05;;;3.55;;
81656;SDS011;71067;51.482;-0.580;2024-01-11T10:38:45;5.93;;;2.90;;
81656;SDS011;71067;51.482;-0.580;2024-01-11T10:41:12;7.65;;;2.70;;
81656;SDS011;71067;51.482;-0.580;2024-01-11T10:43:40;9.90;;;3.10;;
81656;SDS011;71067;51.482;-0.580;2024-01-11T10:46:06;7.10;;;2.63;;
81656;SDS011;71067;51.482;-0.580;2024-01-11T10:48:37;5.85;;;2.90;;
81656;SDS011;71067;51.482;-0.580;2024-01-11T10:51:05;6.22;;;2.33;;
81656;SDS011;71067;51.482;-0.580;2024-01-11T10:56:12;8.13;;;3.22;;
81656;SDS011;71067;51.482;-0.580;2024-01-11T10:58:39;6.82;;;3.17;;
81656;SDS011;71067;51.482;-0.580;2024-01-11T11:01:05;5.57;;;2.53;;
81656;SDS011;71067;51.482;-0.580;2024-01-11T11:03:31;5.85;;;2.53;;
81656;SDS011;71067;51.482;-0.580;2024-01-11T11:05:59;9.77;;;2.67;;
81656;SDS011;71067;51.482;-0.580;2024-01-11T11:08:25;8.20;;;2.55;;
81656;SDS011;71067;51.482;-0.580;2024-01-11T11:10:58;6.05;;;2.50;;
81656;SDS011;71067;51.482;-0.580;2024-01-11T11:13:25;8.23;;;2.75;;
81656;SDS011;71067;51.482;-0.580;2024-01-11T11:15:51;8.88;;;2.50;;
81656;SDS011;71067;51.482;-0.580;2024-01-11T11:18:18;7.18;;;2.53;;
81656;SDS011;71067;51.482;-0.580;2024-01-11T11:20:44;8.68;;;2.60;;
81656;SDS011;71067;51.482;-0.580;2024-01-11T11:23:11;5.63;;;2.70;;
81656;SDS011;71067;51.482;-0.580;2024-01-11T11:25:41;4.55;;;2.42;;
81656;SDS011;71067;51.482;-0.580;2024-01-11T11:28:07;3.80;;;2.40;;
81656;SDS011;71067;51.482;-0.580;2024-01-11T11:30:33;3.85;;;1.90;;
81656;SDS011;71067;51.482;-0.580;2024-01-11T11:35:53;7.90;;;2.13;;
81656;SDS011;71067;51.482;-0.580;2024-01-11T11:38:27;5.07;;;2.05;;
81656;SDS011;71067;51.482;-0.580;2024-01-11T11:40:56;6.25;;;2.05;;
81656;SDS011;71067;51.482;-0.580;2024-01-11T11:43:23;5.43;;;2.00;;
81656;SDS011;71067;51.482;-0.580;2024-01-11T11:45:49;5.45;;;1.90;;
81656;SDS011;71067;51.482;-0.580;2024-01-11T11:53:35;3.58;;;1.50;;
81656;SDS011;71067;51.482;-0.580;2024-01-11T11:56:01;4.22;;;1.50;;
81656;SDS011;71067;51.482;-0.580;2024-01-11T11:58:28;2.97;;;1.20;;
81656;SDS011;71067;51.482;-0.580;2024-01-11T12:00:54;3.22;;;1.38;;
81656;SDS011;71067;51.482;-0.580;2024-01-11T12:03:23;2.80;;;1.30;;
81656;SDS011;71067;51.482;-0.580;2024-01-11T12:05:55;4.32;;;1.63;;
81656;SDS011;71067;51.482;-0.580;2024-01-11T12:08:20;3.03;;;1.15;;
81656;SDS011;71067;51.482;-0.580;2024-01-11T12:10:46;5.07;;;1.50;;
81656;SDS011;71067;51.482;-0.580;2024-01-11T12:13:12;3.67;;;1.63;;
81656;SDS011;71067;51.482;-0.580;2024-01-11T12:15:37;4.45;;;1.80;;
81656;SDS011;71067;51.482;-0.580;2024-01-11T12:18:03;6.55;;;1.98;;
81656;SDS011;71067;51.482;-0.580;2024-01-11T12:20:29;3.22;;;1.65;;
81656;SDS011;71067;51.482;-0.580;2024-01-11T12:22:54;5.45;;;1.80;;
81656;SDS011;71067;51.482;-0.580;2024-01-11T12:25:20;2.95;;;1.55;;
81656;SDS011;71067;51.482;-0.580;2024-01-11T12:27:46;4.00;;;1.80;;
81656;SDS011;71067;51.482;-0.580;2024-01-11T12:30:12;4.28;;;2.35;;
81656;SDS011;71067;51.482;-0.580;2024-01-11T12:32:41;3.88;;;1.88;;
81656;SDS011;71067;51.482;-0.580;2024-01-11T12:35:07;3.78;;;2.13;;
81656;SDS011;71067;51.482;-0.580;2024-01-11T12:37:33;6.38;;;2.00;;
81656;SDS011;71067;51.482;-0.580;2024-01-11T12:39:58;5.03;;;2.00;;
81656;SDS011;71067;51.482;-0.580;2024-01-11T12:42:24;3.53;;;2.10;;
81656;SDS011;71067;51.482;-0.580;2024-01-11T12:44:51;3.10;;;1.70;;
81656;SDS011;71067;51.482;-0.580;2024-01-11T12:47:17;6.13;;;1.92;;
81656;SDS011;71067;51.482;-0.580;2024-01-11T12:49:46;4.80;;;1.50;;
81656;SDS011;71067;51.482;-0.580;2024-01-11T12:52:17;8.23;;;2.10;;
81656;SDS011;71067;51.482;-0.580;2024-01-11T12:54:44;4.78;;;1.83;;
81656;SDS011;71067;51.482;-0.580;2024-01-11T12:57:17;3.70;;;1.70;;
81656;SDS011;71067;51.482;-0.580;2024-01-11T12:59:44;5.22;;;2.10;;
81656;SDS011;71067;51.482;-0.580;2024-01-11T13:02:10;3.05;;;1.92;;
81656;SDS011;71067;51.482;-0.580;2024-01-11T13:04:38;4.43;;;2.00;;
81656;SDS011;71067;51.482;-0.580;2024-01-11T13:07:04;4.85;;;1.85;;
81656;SDS011;71067;51.482;-0.580;2024-01-11T13:09:29;4.28;;;1.80;;
81656;SDS011;71067;51.482;-0.580;2024-01-11T13:11:55;4.80;;;2.10;;
81656;SDS011;71067;51.482;-0.580;2024-01-11T13:14:20;3.75;;;1.65;;
81656;SDS011;71067;51.482;-0.580;2024-01-11T13:16:46;3.83;;;1.83;;
81656;SDS011;71067;51.482;-0.580;2024-01-11T13:19:11;5.40;;;1.67;;
81656;SDS011;71067;51.482;-0.580;2024-01-11T13:21:37;5.30;;;2.15;;
81656;SDS011;71067;51.482;-0.580;2024-01-11T13:24:03;4.28;;;1.83;;
81656;SDS011;71067;51.482;-0.580;2024-01-11T13:26:29;2.10;;;1.50;;
81656;SDS011;71067;51.482;-0.580;2024-01-11T13:28:54;3.65;;;2.00;;
81656;SDS011;71067;51.482;-0.580;2024-01-11T13:31:20;6.30;;;2.10;;
81656;SDS011;71067;51.482;-0.580;2024-01-11T13:33:46;4.40;;;1.92;;
81656;SDS011;71067;51.482;-0.580;2024-01-11T13:36:11;4.72;;;1.77;;
81656;SDS011;71067;51.482;-0.580;2024-01-11T13:38:36;6.50;;;2.20;;
81656;SDS011;71067;51.482;-0.580;2024-01-11T13:41:02;4.32;;;2.40;;
81656;SDS011;71067;51.482;-0.580;2024-01-11T13:43:27;6.05;;;2.08;;
81656;SDS011;71067;51.482;-0.580;2024-01-11T13:45:53;3.95;;;1.77;;
81656;SDS011;71067;51.482;-0.580;2024-01-11T13:48:19;5.03;;;2.03;;
81656;SDS011;71067;51.482;-0.580;2024-01-11T13:50:45;4.68;;;1.73;;
81656;SDS011;71067;51.482;-0.580;2024-01-11T13:53:10;4.07;;;1.60;;
81656;SDS011;71067;51.482;-0.580;2024-01-11T13:55:35;3.20;;;1.23;;
81656;SDS011;71067;51.482;-0.580;2024-01-11T13:58:04;3.33;;;1.60;;
81656;SDS011;71067;51.482;-0.580;2024-01-11T14:00:30;5.47;;;1.80;;
81656;SDS011;71067;51.482;-0.580;2024-01-11T14:02:55;2.38;;;1.60;;
81656;SDS011;71067;51.482;-0.580;2024-01-11T14:05:20;5.97;;;1.50;;
81656;SDS011;71067;51.482;-0.580;2024-01-11T14:07:46;6.25;;;1.85;;
81656;SDS011;71067;51.482;-0.580;2024-01-11T14:10:13;4.03;;;1.83;;
81656;SDS011;71067;51.482;-0.580;2024-01-11T14:12:40;3.17;;;1.40;;
81656;SDS011;71067;51.482;-0.580;2024-01-11T14:15:06;4.32;;;1.70;;
81656;SDS011;71067;51.482;-0.580;2024-01-11T14:17:36;3.45;;;1.67;;
81656;SDS011;71067;51.482;-0.580;2024-01-11T14:20:02;4.43;;;1.50;;
81656;SDS011;71067;51.482;-0.580;2024-01-11T14:22:28;4.30;;;1.63;;
81656;SDS011;71067;51.482;-0.580;2024-01-11T14:24:53;5.50;;;1.40;;
81656;SDS011;71067;51.482;-0.580;2024-01-11T14:27:19;4.05;;;1.80;;
81656;SDS011;71067;51.482;-0.580;2024-01-11T14:29:46;4.40;;;1.95;;
81656;SDS011;71067;51.482;-0.580;2024-01-11T14:32:11;5.53;;;1.88;;
81656;SDS011;71067;51.482;-0.580;2024-01-11T14:34:36;8.83;;;2.20;;